Time;durP1;ratioP1;P1;durP2;ratioP2;P2;SDS_P1;SDS_P2;PMS_P1;PMS_P2;Temp;Humidity;BMP_temperature;BMP_pressure;BME280_temperature;BME280_humidity;BME280_pressure;Samples;Min_cycle;Max_cycle;Signal;HPM_P1;HPM_P2
2024/01/31 00:02:03;;;;;;;1.88;1.77;;;;;;;4.95;100.00;100777.22;5066738;28;20036;-64
2024/01/31 00:04:28;;;;;;;0.40;0.40;;;;;;;4.95;100.00;100785.78;5066313;28;20104;-63
2024/01/31 00:06:53;;;;;;;0.40;0.40;;;;;;;4.93;100.00;100778.88;5066322;28;20381;-64
2024/01/31 00:09:19;;;;;;;0.40;0.40;;;;;;;4.88;100.00;100781.34;5066422;28;20056;-63
2024/01/31 00:11:44;;;;;;;0.80;0.80;;;;;;;4.89;100.00;100777.94;5066246;28;20025;-63
2024/01/31 00:14:10;;;;;;;0.40;0.40;;;;;;;4.84;100.00;100777.84;5066304;28;20032;-63
2024/01/31 00:16:35;;;;;;;2.05;1.95;;;;;;;4.86;100.00;100775.28;5066097;28;20048;-63
2024/01/31 00:19:01;;;;;;;1.35;1.35;;;;;;;4.86;100.00;100777.88;5066119;28;20051;-63
2024/01/31 00:21:26;;;;;;;0.40;0.40;;;;;;;4.88;100.00;100788.19;5066156;28;20021;-62
2024/01/31 00:23:52;;;;;;;0.40;0.40;;;;;;;4.91;100.00;100783.09;5065948;28;20455;-64
2024/01/31 00:26:17;;;;;;;0.40;0.40;;;;;;;4.84;100.00;100780.41;5065850;28;20485;-64
2024/01/31 00:28:42;;;;;;;0.40;0.40;;;;;;;4.82;100.00;100800.09;5047982;28;20147;-62
2024/01/31 00:31:11;;;;;;;0.50;0.50;;;;;;;4.78;100.00;100803.44;5065976;28;20021;-63
2024/01/31 00:33:37;;;;;;;0.93;0.93;;;;;;;4.68;100.00;100804.09;5065790;28;20021;-62
2024/01/31 00:36:02;;;;;;;0.80;0.80;;;;;;;4.56;100.00;100810.69;5065732;28;20041;-65
2024/01/31 00:38:27;;;;;;;0.50;0.50;;;;;;;4.51;100.00;100827.69;5047734;28;20021;-64
2024/01/31 00:40:54;;;;;;;0.40;0.40;;;;;;;4.44;100.00;100810.41;5065807;28;20028;-64
2024/01/31 00:43:19;;;;;;;0.50;0.50;;;;;;;4.34;100.00;100838.44;5065640;28;20028;-64
2024/01/31 00:45:45;;;;;;;0.55;0.55;;;;;;;4.21;100.00;100829.59;5065578;28;20409;-63
2024/01/31 00:48:10;;;;;;;0.40;0.40;;;;;;;4.11;100.00;100832.72;5065605;28;20020;-63
2024/01/31 00:50:35;;;;;;;0.40;0.40;;;;;;;3.96;100.00;100841.78;5065634;28;20021;-63
2024/01/31 00:53:00;;;;;;;0.40;0.40;;;;;;;3.83;100.00;100852.59;5065385;28;20465;-63
2024/01/31 00:55:26;;;;;;;0.50;0.50;;;;;;;3.72;100.00;100850.59;5047468;28;20024;-63
2024/01/31 00:57:51;;;;;;;0.70;0.70;;;;;;;3.55;100.00;100854.38;5065241;28;20017;-63
2024/01/31 01:00:17;;;;;;;0.40;0.40;;;;;;;3.49;100.00;100867.06;5065502;28;20025;-63
2024/01/31 01:02:43;;;;;;;0.50;0.50;;;;;;;3.45;100.00;100878.97;5047366;28;20028;-64
2024/01/31 01:05:09;;;;;;;0.40;0.40;;;;;;;3.35;100.00;100870.97;5047106;28;20025;-63
2024/01/31 01:07:39;;;;;;;0.75;0.75;;;;;;;3.29;100.00;100869.94;5065064;28;20029;-64
2024/01/31 01:10:12;;;;;;;0.52;0.52;;;;;;;3.23;100.00;100878.31;5065489;28;20021;-65
2024/01/31 01:12:38;;;;;;;0.40;0.40;;;;;;;3.21;100.00;100883.41;5046954;28;20048;-65
2024/01/31 01:15:04;;;;;;;0.98;0.98;;;;;;;3.16;100.00;100884.09;5064969;28;20052;-65
2024/01/31 01:17:30;;;;;;;0.40;0.40;;;;;;;3.17;100.00;100875.56;5065166;28;20499;-65
2024/01/31 01:19:55;;;;;;;1.23;1.20;;;;;;;3.17;100.00;100886.72;5065037;28;20040;-65
2024/01/31 01:22:20;;;;;;;0.40;0.40;;;;;;;3.16;100.00;100879.84;5047104;28;20020;-65
2024/01/31 01:24:46;;;;;;;0.40;0.40;;;;;;;3.04;100.00;100888.03;5064948;28;20029;-65
2024/01/31 01:27:11;;;;;;;0.40;0.40;;;;;;;3.02;100.00;100892.22;5046834;28;20021;-65
2024/01/31 01:29:36;;;;;;;0.40;0.40;;;;;;;2.95;100.00;100880.94;5065050;28;20408;-64
2024/01/31 01:32:02;;;;;;;0.40;0.40;;;;;;;3.01;100.00;100903.34;5065010;28;20029;-65
2024/01/31 01:34:27;;;;;;;0.50;0.50;;;;;;;3.01;100.00;100905.91;5064735;28;20025;-64
2024/01/31 01:36:53;;;;;;;0.50;0.50;;;;;;;2.95;100.00;100901.47;5046768;28;20353;-64
2024/01/31 01:39:18;;;;;;;0.40;0.40;;;;;;;3.01;100.00;100902.44;5064942;28;20024;-65
2024/01/31 01:41:50;;;;;;;0.40;0.40;;;;;;;2.88;100.00;100883.25;5064697;28;20040;-65
2024/01/31 01:44:16;;;;;;;0.57;0.57;;;;;;;2.89;100.00;100893.53;5064878;28;20036;-64
2024/01/31 01:46:42;;;;;;;0.40;0.40;;;;;;;2.90;100.00;100885.03;5065051;28;20021;-64
2024/01/31 01:49:09;;;;;;;0.50;0.50;;;;;;;2.89;100.00;100890.97;5068954;28;20055;-64
2024/01/31 01:51:34;;;;;;;1.60;1.58;;;;;;;2.85;100.00;100882.34;5068745;28;20056;-64
2024/01/31 01:54:01;;;;;;;0.40;0.40;;;;;;;2.81;100.00;100882.19;5068906;28;20028;-64
2024/01/31 01:56:26;;;;;;;0.40;0.40;;;;;;;2.76;100.00;100873.47;5068927;28;20388;-65
2024/01/31 01:58:53;;;;;;;0.50;0.50;;;;;;;2.73;100.00;100880.25;5068920;28;20096;-64
2024/01/31 02:01:20;;;;;;;0.40;0.40;;;;;;;2.71;100.00;100861.41;5068773;28;20021;-64
2024/01/31 02:03:45;;;;;;;0.40;0.40;;;;;;;2.72;100.00;100869.94;5051000;28;20025;-63
2024/01/31 02:06:11;;;;;;;0.50;0.50;;;;;;;2.68;100.00;100878.38;5068685;28;20036;-63
2024/01/31 02:08:36;;;;;;;0.40;0.40;;;;;;;2.68;100.00;100873.25;5050663;28;20025;-63
2024/01/31 02:11:01;;;;;;;0.50;0.50;;;;;;;2.67;100.00;100880.06;5068758;28;20025;-63
2024/01/31 02:13:27;;;;;;;0.40;0.40;;;;;;;2.65;100.00;100870.59;5068549;28;20127;-63
2024/01/31 02:15:57;;;;;;;0.50;0.50;;;;;;;2.62;100.00;100878.19;5068320;28;20044;-64
2024/01/31 02:18:24;;;;;;;0.40;0.40;;;;;;;2.59;100.00;100878.94;5050798;28;20036;-63
2024/01/31 02:20:50;;;;;;;0.50;0.50;;;;;;;2.65;100.00;100881.69;5068632;28;20021;-63
2024/01/31 02:23:15;;;;;;;0.50;0.50;;;;;;;2.62;100.00;100879.03;5068445;28;20076;-63
2024/01/31 02:25:41;;;;;;;0.40;0.40;;;;;;;2.65;100.00;100883.41;5068462;28;20603;-63
2024/01/31 02:28:06;;;;;;;0.40;0.40;;;;;;;2.58;100.00;100892.59;5068027;28;20244;-64
2024/01/31 02:30:32;;;;;;;0.40;0.40;;;;;;;2.54;100.00;100906.13;5068422;28;20091;-63
2024/01/31 02:32:57;;;;;;;0.50;0.50;;;;;;;2.54;100.00;100913.81;5068288;28;20021;-63
2024/01/31 02:35:26;;;;;;;0.40;0.40;;;;;;;2.39;100.00;100902.25;5068064;28;20024;-63
2024/01/31 02:37:52;;;;;;;0.50;0.50;;;;;;;2.44;100.00;100921.22;5050402;28;20025;-64
2024/01/31 02:40:17;;;;;;;0.50;0.50;;;;;;;2.40;100.00;100936.41;5067985;28;20046;-63
2024/01/31 02:42:43;;;;;;;0.40;0.40;;;;;;;2.37;100.00;100946.56;5049953;28;20036;-63
2024/01/31 02:45:09;;;;;;;0.40;0.40;;;;;;;2.33;100.00;100945.59;5067913;28;20024;-63
2024/01/31 02:47:35;;;;;;;0.40;0.40;;;;;;;2.38;100.00;100964.53;5049958;28;20025;-64
2024/01/31 02:50:00;;;;;;;0.50;0.50;;;;;;;2.38;100.00;100964.53;5049882;28;20036;-63
2024/01/31 02:52:26;;;;;;;0.40;0.40;;;;;;;2.25;100.00;100947.91;5067895;28;20025;-63
2024/01/31 02:54:51;;;;;;;0.40;0.40;;;;;;;2.35;100.00;100967.00;5067694;28;20066;-64
2024/01/31 02:57:17;;;;;;;0.40;0.40;;;;;;;2.30;100.00;100964.28;5067536;28;20032;-64
2024/01/31 02:59:43;;;;;;;0.47;0.47;;;;;;;2.32;100.00;100972.03;5067425;28;20017;-64
2024/01/31 03:02:08;;;;;;;0.50;0.50;;;;;;;2.29;100.00;100967.69;5067697;28;20032;-64
2024/01/31 03:04:34;;;;;;;0.43;0.43;;;;;;;2.36;100.00;100984.16;5067312;28;20035;-65
2024/01/31 03:06:59;;;;;;;0.40;0.40;;;;;;;2.37;100.00;100967.06;5067613;28;20056;-64
2024/01/31 03:09:26;;;;;;;0.40;0.40;;;;;;;2.28;100.00;100954.81;5049385;28;20032;-64
2024/01/31 03:11:52;;;;;;;0.40;0.40;;;;;;;2.44;100.00;100982.72;5067365;28;20032;-64
2024/01/31 03:14:17;;;;;;;0.50;0.50;;;;;;;2.46;100.00;100985.34;5067501;28;20024;-65
2024/01/31 03:16:43;;;;;;;0.50;0.50;;;;;;;2.44;100.00;100985.28;5067236;28;20021;-64
2024/01/31 03:19:09;;;;;;;0.50;0.50;;;;;;;2.47;100.00;100995.66;5069178;28;20044;-64
2024/01/31 03:21:34;;;;;;;0.47;0.47;;;;;;;2.42;100.00;101009.09;5067304;28;20031;-63
2024/01/31 03:24:00;;;;;;;0.40;0.40;;;;;;;2.34;100.00;101006.28;5049930;28;20025;-63
2024/01/31 03:26:25;;;;;;;0.40;0.40;;;;;;;2.38;100.00;101009.81;5067098;28;20016;-64
2024/01/31 03:28:50;;;;;;;0.50;0.50;;;;;;;2.39;100.00;101019.25;5067226;28;20056;-64
2024/01/31 03:31:16;;;;;;;0.40;0.40;;;;;;;2.36;100.00;101020.03;5067213;28;20031;-64
2024/01/31 03:33:41;;;;;;;0.50;0.50;;;;;;;2.35;100.00;101018.25;5066952;28;20491;-64
2024/01/31 03:36:09;;;;;;;0.40;0.40;;;;;;;2.37;100.00;101023.44;5067126;28;20021;-63
2024/01/31 03:38:35;;;;;;;0.40;0.40;;;;;;;2.39;100.00;101025.25;5066848;28;20055;-64
2024/01/31 03:41:03;;;;;;;0.40;0.40;;;;;;;2.42;100.00;101020.22;5067061;28;20477;-64
2024/01/31 03:43:28;;;;;;;0.40;0.40;;;;;;;2.41;100.00;101033.84;5049225;28;20025;-64
2024/01/31 03:45:54;;;;;;;0.40;0.40;;;;;;;2.43;100.00;101037.34;5066773;28;20120;-64
2024/01/31 03:48:20;;;;;;;0.40;0.40;;;;;;;2.47;100.00;101046.91;5066684;28;20095;-64
2024/01/31 03:50:45;;;;;;;0.40;0.40;;;;;;;2.53;100.00;101043.69;5066669;28;20447;-65
2024/01/31 03:53:10;;;;;;;0.40;0.40;;;;;;;2.52;100.00;101024.00;5066501;28;20025;-64
2024/01/31 03:55:36;;;;;;;0.40;0.40;;;;;;;2.49;100.00;101046.97;5066445;28;20036;-64
2024/01/31 03:58:02;;;;;;;0.40;0.40;;;;;;;2.52;100.00;101048.75;5066502;28;20082;-65
2024/01/31 04:00:28;;;;;;;0.40;0.40;;;;;;;2.48;100.00;101055.44;5048610;28;20025;-65
2024/01/31 04:02:53;;;;;;;0.40;0.40;;;;;;;2.52;100.00;101066.69;5066448;28;20381;-65
2024/01/31 04:05:18;;;;;;;0.50;0.50;;;;;;;2.52;100.00;101059.88;5066287;28;20036;-65
2024/01/31 04:07:44;;;;;;;0.40;0.40;;;;;;;2.53;100.00;101063.31;5066469;28;20182;-64
2024/01/31 04:10:09;;;;;;;0.40;0.40;;;;;;;2.51;100.00;101063.25;5065718;28;20039;-64
2024/01/31 04:12:35;;;;;;;0.40;0.40;;;;;;;2.57;100.00;101055.78;5066281;28;20100;-65
2024/01/31 04:15:00;;;;;;;0.40;0.40;;;;;;;2.60;100.00;101061.00;5066221;28;20049;-65
2024/01/31 04:17:25;;;;;;;0.60;0.60;;;;;;;2.56;100.00;101038.66;5066036;28;20074;-65
2024/01/31 04:19:50;;;;;;;0.40;0.40;;;;;;;2.56;100.00;101033.53;5066236;28;20493;-64
2024/01/31 04:22:16;;;;;;;0.40;0.40;;;;;;;2.50;100.00;101043.56;5066325;28;20036;-64
2024/01/31 04:24:43;;;;;;;0.40;0.40;;;;;;;2.35;100.00;101037.06;5066016;28;20365;-63
2024/01/31 04:27:09;;;;;;;0.50;0.50;;;;;;;2.35;100.00;101046.44;5048055;28;20031;-64
2024/01/31 04:29:38;;;;;;;0.40;0.40;;;;;;;2.31;100.00;101042.03;5065976;28;20494;-63
2024/01/31 04:32:03;;;;;;;0.40;0.40;;;;;;;2.18;100.00;101046.72;5048140;28;20025;-64
2024/01/31 04:34:29;;;;;;;0.40;0.40;;;;;;;2.10;100.00;101043.00;5065993;28;20036;-64
2024/01/31 04:36:55;;;;;;;0.40;0.40;;;;;;;2.02;100.00;101037.59;5066039;28;20025;-64
2024/01/31 04:39:20;;;;;;;0.40;0.40;;;;;;;2.03;100.00;101038.50;5065722;28;20025;-64
2024/01/31 04:41:47;;;;;;;0.50;0.50;;;;;;;2.04;100.00;101035.09;5065750;28;20029;-64
2024/01/31 04:44:12;;;;;;;0.40;0.40;;;;;;;1.92;100.00;101028.69;5065551;28;20036;-64
2024/01/31 04:46:37;;;;;;;0.40;0.40;;;;;;;1.85;100.00;101027.59;5047934;28;20387;-63
2024/01/31 04:49:03;;;;;;;0.50;0.50;;;;;;;1.81;100.00;101042.78;5065547;28;20032;-63
2024/01/31 04:51:28;;;;;;;0.50;0.50;;;;;;;1.69;100.00;101026.13;5065646;28;20040;-63
2024/01/31 04:53:53;;;;;;;0.50;0.50;;;;;;;1.71;100.00;101037.31;5065641;28;20089;-64
2024/01/31 04:56:21;;;;;;;0.40;0.40;;;;;;;1.67;100.00;101037.13;5065324;28;20103;-64
2024/01/31 04:58:47;;;;;;;0.50;0.50;;;;;;;1.64;100.00;101037.03;5065650;28;20059;-64
2024/01/31 05:01:12;;;;;;;0.50;0.50;;;;;;;1.58;100.00;101035.13;5065394;28;20041;-64
2024/01/31 05:03:37;;;;;;;0.40;0.40;;;;;;;1.58;100.00;101027.44;5065398;28;20031;-64
2024/01/31 05:06:03;;;;;;;0.40;0.40;;;;;;;1.60;100.00;101047.16;5065459;28;20142;-63
2024/01/31 05:08:28;;;;;;;0.45;0.45;;;;;;;1.60;100.00;101053.94;5065112;28;20021;-63
2024/01/31 05:10:55;;;;;;;0.40;0.40;;;;;;;1.62;100.00;101054.88;5065332;28;20025;-63
2024/01/31 05:13:20;;;;;;;0.40;0.40;;;;;;;1.72;100.00;101046.75;5065135;28;20419;-63
2024/01/31 05:15:45;;;;;;;0.50;0.50;;;;;;;1.66;100.00;101015.78;5064908;28;20104;-63
2024/01/31 05:18:11;;;;;;;0.50;0.50;;;;;;;1.89;100.00;101041.38;5047256;28;20033;-63
2024/01/31 05:20:37;;;;;;;0.40;0.40;;;;;;;1.96;100.00;101043.38;5065341;28;20100;-64
2024/01/31 05:23:03;;;;;;;0.50;0.50;;;;;;;2.01;100.00;101047.78;5065084;28;20029;-63
2024/01/31 05:25:28;;;;;;;0.50;0.50;;;;;;;2.06;100.00;101061.66;5064912;28;20043;-63
2024/01/31 05:27:54;;;;;;;0.50;0.50;;;;;;;2.05;100.00;101059.88;5064930;28;20021;-63
2024/01/31 05:30:20;;;;;;;0.50;0.50;;;;;;;2.07;100.00;101066.84;5065037;28;20028;-63
2024/01/31 05:32:46;;;;;;;0.50;0.50;;;;;;;2.14;100.00;101047.41;5064955;28;20033;-63
2024/01/31 05:35:12;;;;;;;0.40;0.40;;;;;;;2.16;100.00;101050.03;5065301;28;20047;-63
2024/01/31 05:37:37;;;;;;;0.40;0.40;;;;;;;2.12;100.00;101055.88;5047222;28;20570;-63
2024/01/31 05:40:04;;;;;;;0.50;0.50;;;;;;;2.09;100.00;101054.09;5065099;28;20016;-63
2024/01/31 05:42:29;;;;;;;0.40;0.40;;;;;;;2.09;100.00;101059.19;5046659;28;20025;-63
2024/01/31 05:44:56;;;;;;;0.50;0.50;;;;;;;2.07;100.00;101054.03;5046995;28;20036;-63
2024/01/31 05:47:21;;;;;;;3.38;2.88;;;;;;;2.13;100.00;101065.28;5064718;28;20031;-63
2024/01/31 05:49:47;;;;;;;0.50;0.50;;;;;;;2.14;100.00;101062.78;5046775;28;20346;-63
2024/01/31 05:52:12;;;;;;;0.40;0.40;;;;;;;2.15;100.00;101067.09;5046832;28;20024;-63
2024/01/31 05:54:39;;;;;;;0.50;0.50;;;;;;;2.14;100.00;101073.03;5064777;28;20021;-64
2024/01/31 05:57:04;;;;;;;0.40;0.40;;;;;;;2.14;100.00;101080.72;5064655;28;20029;-63
2024/01/31 05:59:30;;;;;;;0.50;0.50;;;;;;;2.09;100.00;101077.97;5064685;28;20495;-63
2024/01/31 06:01:55;;;;;;;0.50;0.50;;;;;;;2.12;100.00;101076.38;5064811;28;20028;-63
2024/01/31 06:04:20;;;;;;;0.50;0.50;;;;;;;2.09;100.00;101080.53;5064834;28;20456;-63
2024/01/31 06:06:46;;;;;;;0.40;0.40;;;;;;;2.10;100.00;101086.56;5064778;28;20075;-63
2024/01/31 06:09:12;;;;;;;0.50;0.50;;;;;;;2.09;100.00;101079.69;5071262;23;20048;-65
2024/01/31 06:11:38;;;;;;;0.50;0.50;;;;;;;2.06;100.00;101082.16;5064227;28;20105;-66
2024/01/31 06:14:03;;;;;;;0.40;0.40;;;;;;;2.08;100.00;101081.38;5076413;23;20024;-63
2024/01/31 06:16:29;;;;;;;0.40;0.40;;;;;;;2.06;100.00;101080.44;5070379;23;20524;-64
2024/01/31 06:18:55;;;;;;;0.40;0.40;;;;;;;2.07;100.00;101081.31;5064502;28;20029;-64
2024/01/31 06:21:20;;;;;;;0.50;0.50;;;;;;;2.06;100.00;101089.81;5046259;28;20112;-64
2024/01/31 06:23:46;;;;;;;0.40;0.40;;;;;;;2.05;100.00;101088.94;5064599;28;20063;-64
2024/01/31 06:26:12;;;;;;;0.40;0.40;;;;;;;2.08;100.00;101098.41;5064339;28;20027;-66
2024/01/31 06:28:38;;;;;;;0.50;0.50;;;;;;;2.06;100.00;101094.94;5064141;28;20036;-65
2024/01/31 06:31:24;;;;;;;0.40;0.40;;;;;;;2.05;100.00;101099.19;5052677;23;20049;-62
2024/01/31 06:33:50;;;;;;;0.40;0.40;;;;;;;2.08;100.00;101080.50;5046533;28;20030;-62
2024/01/31 06:36:15;;;;;;;0.40;0.40;;;;;;;2.05;100.00;101067.56;5048443;28;20104;-63
2024/01/31 06:38:41;;;;;;;0.45;0.45;;;;;;;2.02;100.00;101073.47;5048354;28;20021;-62
2024/01/31 06:41:07;;;;;;;0.50;0.50;;;;;;;1.96;100.00;101076.69;5048406;28;20049;-62
2024/01/31 06:43:33;;;;;;;0.40;0.40;;;;;;;1.95;100.00;101076.63;5048181;28;20021;-62
2024/01/31 06:45:58;;;;;;;0.40;0.40;;;;;;;1.81;100.00;101053.03;5048061;28;20484;-63
2024/01/31 06:48:24;;;;;;;0.40;0.40;;;;;;;1.91;100.00;101078.19;5048161;28;20085;-63
2024/01/31 06:50:50;;;;;;;0.40;0.40;;;;;;;1.87;100.00;101091.66;5047964;28;20535;-62
2024/01/31 06:53:15;;;;;;;0.40;0.40;;;;;;;1.85;100.00;101076.25;5065880;23;20045;-68
2024/01/31 06:55:41;;;;;;;0.40;0.40;;;;;;;1.88;100.00;101078.06;5067756;28;20060;-67
2024/01/31 06:58:06;;;;;;;0.40;0.40;;;;;;;1.87;100.00;101054.97;5067564;28;20032;-69
2024/01/31 07:00:32;;;;;;;0.40;0.40;;;;;;;1.85;100.00;101057.47;5049629;28;20021;-69
2024/01/31 07:02:57;;;;;;;0.40;0.40;;;;;;;1.84;100.00;101071.06;5067685;28;20025;-68
2024/01/31 07:05:23;;;;;;;0.40;0.40;;;;;;;1.83;100.00;101061.66;5049751;28;20438;-69
2024/01/31 07:07:49;;;;;;;1.35;1.33;;;;;;;1.85;100.00;101049.78;5086570;22;20076;-64
2024/01/31 07:10:14;;;;;;;0.45;0.45;;;;;;;1.90;100.00;101071.28;5053154;23;20076;-70
2024/01/31 07:12:40;;;;;;;0.45;0.45;;;;;;;1.91;100.00;101067.06;5049065;28;20021;-69
2024/01/31 07:15:06;;;;;;;0.40;0.40;;;;;;;1.91;100.00;101072.19;5049639;28;20103;-69
2024/01/31 07:17:31;;;;;;;0.40;0.40;;;;;;;1.89;100.00;101081.47;5067493;28;20024;-69
2024/01/31 07:20:47;;;;;;;0.50;0.50;;;;;;;1.96;100.00;101081.81;5070924;23;20036;-63
2024/01/31 07:23:13;;;;;;;0.40;0.40;;;;;;;1.95;100.00;101074.91;5008243;28;20037;-64
2024/01/31 07:25:39;;;;;;;0.50;0.50;;;;;;;1.95;100.00;101076.63;5006576;28;20081;-64
2024/01/31 07:28:05;;;;;;;0.40;0.40;;;;;;;1.96;100.00;101071.56;5007677;28;20498;-64
2024/01/31 07:30:30;;;;;;;0.45;0.45;;;;;;;2.03;100.00;101069.22;5008141;28;20026;-64
2024/01/31 07:32:55;;;;;;;0.40;0.40;;;;;;;2.03;100.00;101075.19;5006711;28;20030;-64
2024/01/31 07:35:24;;;;;;;0.40;0.40;;;;;;;2.09;100.00;101062.63;5008005;28;20022;-63
2024/01/31 07:37:49;;;;;;;0.40;0.40;;;;;;;2.19;100.00;101083.47;5006176;28;20052;-63
2024/01/31 07:40:15;;;;;;;0.30;0.30;;;;;;;2.23;100.00;101085.31;5007435;28;20030;-63
2024/01/31 07:42:41;;;;;;;0.40;0.40;;;;;;;2.25;100.00;101075.13;5043776;23;20049;-63
2024/01/31 07:45:06;;;;;;;0.68;0.68;;;;;;;2.33;100.00;101086.53;5046035;28;20052;-63
2024/01/31 07:47:32;;;;;;;0.88;0.88;;;;;;;2.37;100.00;101090.94;5052338;23;20052;-69
2024/01/31 07:49:57;;;;;;;0.40;0.40;;;;;;;2.43;100.00;101098.00;5061726;23;20064;-63
2024/01/31 07:52:22;;;;;;;0.40;0.40;;;;;;;2.55;100.00;101101.00;5045600;28;20029;-64
2024/01/31 07:54:48;;;;;;;0.40;0.40;;;;;;;2.63;100.00;101106.41;5060726;23;20402;-73
2024/01/31 07:57:13;;;;;;;0.45;0.45;;;;;;;2.73;100.00;101093.06;5066590;28;20032;-74
2024/01/31 07:59:38;;;;;;;0.40;0.40;;;;;;;2.93;100.00;101105.72;5048682;28;20021;-74
2024/01/31 08:02:04;;;;;;;0.40;0.40;;;;;;;3.20;100.00;101104.03;5066625;28;20052;-75
2024/01/31 08:04:29;;;;;;;0.50;0.50;;;;;;;3.41;100.00;101119.28;5064541;28;20047;-75
2024/01/31 08:06:54;;;;;;;0.40;0.40;;;;;;;3.61;100.00;101111.31;5045548;23;20076;-65
2024/01/31 08:09:22;;;;;;;0.43;0.43;;;;;;;3.90;100.00;101115.66;5046247;28;20048;-66
2024/01/31 08:11:48;;;;;;;0.40;0.40;;;;;;;3.91;100.00;101123.41;5046513;28;20036;-65
2024/01/31 08:14:13;;;;;;;0.40;0.40;;;;;;;3.81;100.00;101118.81;5046817;28;20022;-65
2024/01/31 08:16:39;;;;;;;0.40;0.40;;;;;;;3.68;100.00;101114.97;5046197;28;20036;-65
2024/01/31 08:19:04;;;;;;;0.50;0.50;;;;;;;3.63;100.00;101114.81;5046368;28;20021;-64
2024/01/31 08:21:33;;;;;;;0.40;0.40;;;;;;;3.60;100.00;101119.88;5067613;23;20142;-72
2024/01/31 08:23:59;;;;;;;0.40;0.40;;;;;;;3.64;100.00;101119.16;5066034;28;20121;-73
2024/01/31 08:26:24;;;;;;;0.50;0.50;;;;;;;3.80;100.00;101127.34;5072035;22;20056;-65
2024/01/31 08:31:18;;;;;;;0.40;0.40;;;;;;;3.89;100.00;101131.88;5084918;22;20324;-64
2024/01/31 08:33:44;;;;;;;0.40;0.40;;;;;;;3.86;100.00;101126.66;5068364;28;20025;-64
2024/01/31 08:36:09;;;;;;;0.50;0.50;;;;;;;3.86;100.00;101124.97;5091411;23;20047;-68
2024/01/31 08:38:37;;;;;;;0.50;0.50;;;;;;;3.85;100.00;101123.19;5098811;22;20041;-65
2024/01/31 08:41:02;;;;;;;0.40;0.40;;;;;;;3.84;100.00;101112.06;5085951;28;20046;-65
2024/01/31 08:43:28;;;;;;;3.45;3.17;;;;;;;3.85;100.00;101110.34;5085646;28;20092;-65
2024/01/31 08:45:53;;;;;;;0.40;0.40;;;;;;;3.83;100.00;101101.75;5085713;28;20028;-65
2024/01/31 08:48:19;;;;;;;0.40;0.40;;;;;;;3.94;100.00;101109.78;5067794;28;20028;-65
2024/01/31 08:50:44;;;;;;;0.40;0.40;;;;;;;3.90;100.00;101101.09;5085827;28;20371;-65
2024/01/31 08:53:10;;;;;;;0.40;0.40;;;;;;;3.91;100.00;101101.97;5085723;28;20088;-65
2024/01/31 08:55:35;;;;;;;0.40;0.40;;;;;;;3.94;100.00;101099.50;5085510;28;20109;-65
2024/01/31 08:58:00;;;;;;;0.50;0.50;;;;;;;3.98;100.00;101103.88;5085394;28;20024;-65
2024/01/31 09:00:29;;;;;;;0.40;0.40;;;;;;;3.99;100.00;101102.22;5067577;28;20024;-65
2024/01/31 09:02:55;;;;;;;0.40;0.40;;;;;;;3.99;100.00;101102.22;5085628;28;20021;-65
2024/01/31 09:05:20;;;;;;;0.50;0.50;;;;;;;3.99;100.00;101097.06;5085152;28;20024;-65
2024/01/31 09:07:45;;;;;;;0.60;0.60;;;;;;;4.12;100.00;101103.44;5085472;28;20078;-65
2024/01/31 09:10:11;;;;;;;1.23;1.17;;;;;;;4.15;100.00;101086.44;5085414;28;20029;-65
2024/01/31 09:12:36;;;;;;;0.40;0.40;;;;;;;4.13;100.00;101089.75;5085193;28;20035;-66
2024/01/31 09:15:02;;;;;;;0.50;0.50;;;;;;;4.22;100.00;101084.88;5085530;28;20016;-66
2024/01/31 09:17:27;;;;;;;0.40;0.40;;;;;;;4.22;100.00;101082.31;5085237;28;20040;-65
2024/01/31 09:19:52;;;;;;;0.43;0.43;;;;;;;4.27;100.00;101093.59;5085111;28;20020;-65
2024/01/31 09:22:18;;;;;;;0.40;0.40;;;;;;;4.23;99.94;101086.66;5085376;28;20027;-66
2024/01/31 09:24:43;;;;;;;0.40;0.40;;;;;;;4.31;100.00;101090.28;5066839;28;20024;-66
2024/01/31 09:27:09;;;;;;;0.90;0.85;;;;;;;4.25;99.83;101086.69;5066931;28;20066;-65
2024/01/31 09:29:34;;;;;;;0.50;0.50;;;;;;;4.31;99.57;101089.44;5085037;28;20495;-66
2024/01/31 09:32:02;;;;;;;0.40;0.40;;;;;;;4.34;99.79;101074.09;5085127;28;20024;-65
2024/01/31 09:34:28;;;;;;;0.40;0.40;;;;;;;4.37;98.67;101073.28;5085167;28;20024;-65
2024/01/31 09:36:53;;;;;;;0.40;0.40;;;;;;;4.43;99.23;101076.91;5085286;28;20029;-66
2024/01/31 09:39:18;;;;;;;0.40;0.40;;;;;;;4.54;100.00;101071.19;5084893;28;20072;-66
2024/01/31 09:41:44;;;;;;;0.38;0.38;;;;;;;4.69;100.00;101066.47;5085044;28;20494;-65
2024/01/31 09:44:09;;;;;;;1.85;1.75;;;;;;;4.78;99.48;101070.97;5085058;28;20031;-65
2024/01/31 09:46:36;;;;;;;0.40;0.40;;;;;;;4.90;99.62;101052.44;5084907;28;20035;-67
2024/01/31 09:49:01;;;;;;;0.40;0.40;;;;;;;5.03;99.50;101066.44;5085000;28;20028;-65
2024/01/31 09:51:27;;;;;;;0.40;0.40;;;;;;;5.03;97.07;101060.44;5084934;28;20100;-65
2024/01/31 09:53:58;;;;;;;0.40;0.40;;;;;;;4.93;96.86;101047.34;5085037;28;20553;-65
2024/01/31 09:56:27;;;;;;;0.40;0.40;;;;;;;4.95;96.93;101058.53;5085213;28;20491;-66
2024/01/31 09:58:54;;;;;;;0.40;0.40;;;;;;;4.84;96.66;101070.25;5084935;28;20074;-65
2024/01/31 10:01:21;;;;;;;0.40;0.40;;;;;;;4.78;96.39;101068.41;5085314;28;20016;-66
2024/01/31 10:03:47;;;;;;;2.38;2.17;;;;;;;4.72;96.19;101068.25;5085001;28;20024;-65
2024/01/31 10:06:12;;;;;;;0.40;0.40;;;;;;;4.62;96.39;101067.13;5084924;28;20035;-65
2024/01/31 10:08:38;;;;;;;1.45;1.40;;;;;;;4.61;96.03;101065.41;5086766;28;20025;-65
2024/01/31 10:11:03;;;;;;;0.50;0.50;;;;;;;4.62;96.12;101074.00;5088971;28;20142;-66
2024/01/31 10:13:29;;;;;;;0.40;0.40;;;;;;;4.62;96.09;101074.84;5088812;28;20119;-66
2024/01/31 10:15:54;;;;;;;0.40;0.40;;;;;;;4.65;96.62;101074.91;5088979;28;20020;-66
2024/01/31 10:18:19;;;;;;;0.43;0.43;;;;;;;4.61;96.36;101078.25;5088763;28;20035;-66
2024/01/31 10:20:51;;;;;;;0.40;0.40;;;;;;;4.56;96.16;101067.84;5088720;28;20024;-65
2024/01/31 10:23:16;;;;;;;1.00;0.95;;;;;;;4.58;96.43;101081.59;5070829;28;20016;-65
2024/01/31 10:25:41;;;;;;;0.40;0.40;;;;;;;4.52;96.03;101065.16;5088497;28;20063;-65
2024/01/31 10:28:08;;;;;;;0.40;0.40;;;;;;;4.55;96.38;101085.81;5088151;28;20028;-65
2024/01/31 10:30:40;;;;;;;0.50;0.50;;;;;;;4.49;95.99;101083.06;5088389;28;20024;-65
2024/01/31 10:33:06;;;;;;;;;;;;;;;4.57;96.57;101077.28;5089100;28;20044;-65
2024/01/31 10:35:33;;;;;;;0.50;0.50;;;;;;;4.54;97.28;101077.22;5088471;28;19995;-65
2024/01/31 10:37:59;;;;;;;0.40;0.40;;;;;;;4.58;97.14;101078.16;5088063;28;20047;-66
2024/01/31 10:40:27;;;;;;;0.40;0.40;;;;;;;4.45;96.24;101074.38;5088358;28;20037;-65
2024/01/31 10:42:54;;;;;;;0.40;0.40;;;;;;;4.46;96.17;101077.00;5088039;28;20040;-65
2024/01/31 10:45:20;;;;;;;0.40;0.40;;;;;;;4.49;96.63;101055.63;5088194;28;20024;-66
2024/01/31 10:47:45;;;;;;;0.40;0.40;;;;;;;4.43;96.05;101053.78;5088296;28;20039;-65
2024/01/31 10:50:11;;;;;;;0.50;0.50;;;;;;;4.50;96.52;101069.38;5088035;28;20380;-66
2024/01/31 10:52:39;;;;;;;0.40;0.40;;;;;;;4.46;96.56;101061.56;5088085;28;20078;-66
2024/01/31 10:55:05;;;;;;;0.43;0.43;;;;;;;4.35;95.93;101052.69;5070009;28;20020;-66
2024/01/31 10:57:31;;;;;;;0.80;0.80;;;;;;;4.32;96.31;101048.34;5088008;28;20383;-66
2024/01/31 10:59:56;;;;;;;0.50;0.50;;;;;;;4.28;95.42;101043.94;5069966;28;20016;-67
2024/01/31 11:02:33;;;;;;;0.40;0.40;;;;;;;4.26;95.02;101037.00;5087706;28;20052;-66
2024/01/31 11:05:03;;;;;;;0.50;0.50;;;;;;;4.28;95.75;101019.94;5087693;28;20460;-66
2024/01/31 11:07:29;;;;;;;0.40;0.40;;;;;;;4.33;95.63;101018.34;5087879;28;20084;-66
2024/01/31 11:09:55;;;;;;;0.50;0.50;;;;;;;4.36;95.87;101005.56;5087825;28;20024;-66
2024/01/31 11:12:21;;;;;;;0.70;0.70;;;;;;;4.46;96.11;101010.16;5087535;28;20036;-67
2024/01/31 11:14:48;;;;;;;0.50;0.50;;;;;;;4.49;95.96;101011.06;5069815;28;20025;-66
2024/01/31 11:17:26;;;;;;;0.47;0.47;;;;;;;4.55;95.83;101004.34;5087653;28;20502;-66
2024/01/31 11:19:56;;;;;;;0.60;0.60;;;;;;;4.52;95.08;100995.72;5087537;28;20054;-66
2024/01/31 11:22:22;;;;;;;0.40;0.40;;;;;;;4.51;94.21;100996.53;5087596;28;20017;-66
2024/01/31 11:24:49;;;;;;;0.40;0.40;;;;;;;4.47;95.42;100993.88;5087323;28;20047;-67